sensor_id;sensor_type;location;lat;lon;timestamp;temperature;humidity
69589;SHT31;56792;50.644;17.984;2022-09-17T00:00:09;8.96;86.23
69589;SHT31;56792;50.644;17.984;2022-09-17T00:02:39;8.96;86.36
69589;SHT31;56792;50.644;17.984;2022-09-17T00:05:09;8.95;86.37
69589;SHT31;56792;50.644;17.984;2022-09-17T00:07:39;8.97;86.59
69589;SHT31;56792;50.644;17.984;2022-09-17T00:10:08;8.98;86.60
69589;SHT31;56792;50.644;17.984;2022-09-17T00:12:38;8.98;86.64
69589;SHT31;56792;50.644;17.984;2022-09-17T00:15:08;8.99;86.49
69589;SHT31;56792;50.644;17.984;2022-09-17T00:17:38;8.98;86.41
69589;SHT31;56792;50.644;17.984;2022-09-17T00:20:08;8.97;86.44
69589;SHT31;56792;50.644;17.984;2022-09-17T00:22:38;8.95;86.30
69589;SHT31;56792;50.644;17.984;2022-09-17T00:25:07;8.94;86.40
69589;SHT31;56792;50.644;17.984;2022-09-17T00:27:36;8.93;86.39
69589;SHT31;56792;50.644;17.984;2022-09-17T00:30:07;8.91;86.46
69589;SHT31;56792;50.644;17.984;2022-09-17T00:32:39;8.90;86.45
69589;SHT31;56792;50.644;17.984;2022-09-17T00:35:08;8.87;86.45
69589;SHT31;56792;50.644;17.984;2022-09-17T00:37:37;8.85;86.44
69589;SHT31;56792;50.644;17.984;2022-09-17T00:40:08;8.84;86.46
69589;SHT31;56792;50.644;17.984;2022-09-17T00:42:37;8.81;86.43
69589;SHT31;56792;50.644;17.984;2022-09-17T00:45:07;8.80;86.40
69589;SHT31;56792;50.644;17.984;2022-09-17T00:47:39;8.77;86.44
69589;SHT31;56792;50.644;17.984;2022-09-17T00:50:16;8.76;86.49
69589;SHT31;56792;50.644;17.984;2022-09-17T00:52:52;8.74;86.53
69589;SHT31;56792;50.644;17.984;2022-09-17T00:55:26;8.73;86.55
69589;SHT31;56792;50.644;17.984;2022-09-17T00:58:00;8.73;86.58
69589;SHT31;56792;50.644;17.984;2022-09-17T01:00:33;8.73;86.50
69589;SHT31;56792;50.644;17.984;2022-09-17T01:03:03;8.72;86.43
69589;SHT31;56792;50.644;17.984;2022-09-17T01:05:34;8.73;86.49
69589;SHT31;56792;50.644;17.984;2022-09-17T01:08:12;8.75;86.47
69589;SHT31;56792;50.644;17.984;2022-09-17T01:11:03;8.76;86.50
69589;SHT31;56792;50.644;17.984;2022-09-17T01:14:05;8.80;86.53
69589;SHT31;56792;50.644;17.984;2022-09-17T01:16:59;8.83;86.63
69589;SHT31;56792;50.644;17.984;2022-09-17T01:23:06;8.87;86.40
69589;SHT31;56792;50.644;17.984;2022-09-17T01:26:08;8.88;86.41
69589;SHT31;56792;50.644;17.984;2022-09-17T01:29:16;8.89;86.32
69589;SHT31;56792;50.644;17.984;2022-09-17T01:32:02;8.90;86.28
69589;SHT31;56792;50.644;17.984;2022-09-17T01:34:43;8.88;86.12
69589;SHT31;56792;50.644;17.984;2022-09-17T01:37:23;8.85;86.09
69589;SHT31;56792;50.644;17.984;2022-09-17T01:40:04;8.84;86.07
69589;SHT31;56792;50.644;17.984;2022-09-17T01:42:45;8.81;86.03
69589;SHT31;56792;50.644;17.984;2022-09-17T01:45:24;8.79;85.99
69589;SHT31;56792;50.644;17.984;2022-09-17T01:48:02;8.75;85.96
69589;SHT31;56792;50.644;17.984;2022-09-17T01:50:39;8.75;86.00
69589;SHT31;56792;50.644;17.984;2022-09-17T01:53:14;8.73;85.98
69589;SHT31;56792;50.644;17.984;2022-09-17T01:55:49;8.72;85.93
69589;SHT31;56792;50.644;17.984;2022-09-17T01:58:26;8.70;85.89
69589;SHT31;56792;50.644;17.984;2022-09-17T02:04:39;8.64;85.87
69589;SHT31;56792;50.644;17.984;2022-09-17T02:07:18;8.62;85.87
69589;SHT31;56792;50.644;17.984;2022-09-17T02:09:52;8.58;85.83
69589;SHT31;56792;50.644;17.984;2022-09-17T02:12:30;8.56;85.85
69589;SHT31;56792;50.644;17.984;2022-09-17T02:15:06;8.53;85.85
69589;SHT31;56792;50.644;17.984;2022-09-17T02:17:43;8.51;85.93
69589;SHT31;56792;50.644;17.984;2022-09-17T02:20:20;8.48;86.01
69589;SHT31;56792;50.644;17.984;2022-09-17T02:23:05;8.44;86.03
69589;SHT31;56792;50.644;17.984;2022-09-17T02:25:43;8.42;85.97
69589;SHT31;56792;50.644;17.984;2022-09-17T02:28:24;8.38;86.04
69589;SHT31;56792;50.644;17.984;2022-09-17T02:31:04;8.33;85.99
69589;SHT31;56792;50.644;17.984;2022-09-17T02:33:33;8.31;86.02
69589;SHT31;56792;50.644;17.984;2022-09-17T02:36:05;8.31;86.08
69589;SHT31;56792;50.644;17.984;2022-09-17T02:38:36;8.30;86.09
69589;SHT31;56792;50.644;17.984;2022-09-17T02:41:12;8.29;86.11
69589;SHT31;56792;50.644;17.984;2022-09-17T02:43:49;8.28;86.16
69589;SHT31;56792;50.644;17.984;2022-09-17T02:46:31;8.28;86.20
69589;SHT31;56792;50.644;17.984;2022-09-17T02:49:30;8.26;86.10
69589;SHT31;56792;50.644;17.984;2022-09-17T02:52:21;8.24;85.99
69589;SHT31;56792;50.644;17.984;2022-09-17T02:55:06;8.21;85.98
69589;SHT31;56792;50.644;17.984;2022-09-17T02:57:45;8.19;85.84
69589;SHT31;56792;50.644;17.984;2022-09-17T03:00:21;8.18;85.91
69589;SHT31;56792;50.644;17.984;2022-09-17T03:02:52;8.14;85.76
69589;SHT31;56792;50.644;17.984;2022-09-17T03:05:27;8.12;85.91
69589;SHT31;56792;50.644;17.984;2022-09-17T03:07:58;8.10;86.02
69589;SHT31;56792;50.644;17.984;2022-09-17T03:10:28;8.10;86.17
69589;SHT31;56792;50.644;17.984;2022-09-17T03:12:58;8.11;86.32
69589;SHT31;56792;50.644;17.984;2022-09-17T03:15:28;8.10;86.31
69589;SHT31;56792;50.644;17.984;2022-09-17T03:17:57;8.09;86.41
69589;SHT31;56792;50.644;17.984;2022-09-17T03:20:26;8.09;86.40
69589;SHT31;56792;50.644;17.984;2022-09-17T03:22:55;8.09;86.43
69589;SHT31;56792;50.644;17.984;2022-09-17T03:25:24;8.09;86.39
69589;SHT31;56792;50.644;17.984;2022-09-17T03:27:56;8.09;86.38
69589;SHT31;56792;50.644;17.984;2022-09-17T03:30:25;8.09;86.44
69589;SHT31;56792;50.644;17.984;2022-09-17T03:32:54;8.09;86.49
69589;SHT31;56792;50.644;17.984;2022-09-17T03:35:23;8.07;86.46
69589;SHT31;56792;50.644;17.984;2022-09-17T03:37:52;8.05;86.46
69589;SHT31;56792;50.644;17.984;2022-09-17T03:40:21;8.04;86.38
69589;SHT31;56792;50.644;17.984;2022-09-17T03:42:51;8.02;86.30
69589;SHT31;56792;50.644;17.984;2022-09-17T03:45:20;8.02;86.30
69589;SHT31;56792;50.644;17.984;2022-09-17T03:47:49;8.00;86.29
69589;SHT31;56792;50.644;17.984;2022-09-17T03:50:18;7.99;86.24
69589;SHT31;56792;50.644;17.984;2022-09-17T03:52:47;7.96;86.20
69589;SHT31;56792;50.644;17.984;2022-09-17T03:55:16;7.93;86.13
69589;SHT31;56792;50.644;17.984;2022-09-17T03:57:45;7.90;86.09
69589;SHT31;56792;50.644;17.984;2022-09-17T04:00:14;7.89;85.98
69589;SHT31;56792;50.644;17.984;2022-09-17T04:02:44;7.86;86.02
69589;SHT31;56792;50.644;17.984;2022-09-17T04:05:14;7.84;85.99
69589;SHT31;56792;50.644;17.984;2022-09-17T04:07:43;7.80;85.98
69589;SHT31;56792;50.644;17.984;2022-09-17T04:10:12;7.76;86.06
69589;SHT31;56792;50.644;17.984;2022-09-17T04:12:41;7.74;86.11
69589;SHT31;56792;50.644;17.984;2022-09-17T04:15:11;7.73;86.15
69589;SHT31;56792;50.644;17.984;2022-09-17T04:17:40;7.71;86.18
69589;SHT31;56792;50.644;17.984;2022-09-17T04:20:09;7.71;86.21
69589;SHT31;56792;50.644;17.984;2022-09-17T04:22:38;7.70;86.20
69589;SHT31;56792;50.644;17.984;2022-09-17T04:25:08;7.70;86.20
69589;SHT31;56792;50.644;17.984;2022-09-17T04:27:37;7.70;86.24
69589;SHT31;56792;50.644;17.984;2022-09-17T04:30:07;7.69;86.28
69589;SHT31;56792;50.644;17.984;2022-09-17T04:32:39;7.67;86.27
69589;SHT31;56792;50.644;17.984;2022-09-17T04:35:10;7.68;86.43
69589;SHT31;56792;50.644;17.984;2022-09-17T04:37:40;7.69;86.52
69589;SHT31;56792;50.644;17.984;2022-09-17T04:40:10;7.71;86.53
69589;SHT31;56792;50.644;17.984;2022-09-17T04:42:39;7.74;86.62
69589;SHT31;56792;50.644;17.984;2022-09-17T04:45:08;7.76;86.53
69589;SHT31;56792;50.644;17.984;2022-09-17T04:47:38;7.78;86.50
69589;SHT31;56792;50.644;17.984;2022-09-17T04:50:08;7.81;86.51
69589;SHT31;56792;50.644;17.984;2022-09-17T04:52:41;7.83;86.50
69589;SHT31;56792;50.644;17.984;2022-09-17T04:55:11;7.85;86.45
69589;SHT31;56792;50.644;17.984;2022-09-17T04:57:45;7.88;86.41
69589;SHT31;56792;50.644;17.984;2022-09-17T05:00:16;7.89;86.43
69589;SHT31;56792;50.644;17.984;2022-09-17T05:02:48;7.92;86.41
69589;SHT31;56792;50.644;17.984;2022-09-17T05:05:20;7.94;86.47
69589;SHT31;56792;50.644;17.984;2022-09-17T05:07:51;7.96;86.51
69589;SHT31;56792;50.644;17.984;2022-09-17T05:10:21;8.02;86.50
69589;SHT31;56792;50.644;17.984;2022-09-17T05:12:50;8.12;86.47
69589;SHT31;56792;50.644;17.984;2022-09-17T05:15:22;8.22;86.50
69589;SHT31;56792;50.644;17.984;2022-09-17T05:17:52;8.34;86.57
69589;SHT31;56792;50.644;17.984;2022-09-17T05:20:22;8.46;86.61
69589;SHT31;56792;50.644;17.984;2022-09-17T05:22:51;8.57;86.66
69589;SHT31;56792;50.644;17.984;2022-09-17T05:25:21;8.69;86.72
69589;SHT31;56792;50.644;17.984;2022-09-17T05:27:51;8.78;86.64
69589;SHT31;56792;50.644;17.984;2022-09-17T05:30:21;8.88;86.57
69589;SHT31;56792;50.644;17.984;2022-09-17T05:32:57;9.00;86.59
69589;SHT31;56792;50.644;17.984;2022-09-17T05:35:28;9.10;86.51
69589;SHT31;56792;50.644;17.984;2022-09-17T05:38:01;9.23;86.43
69589;SHT31;56792;50.644;17.984;2022-09-17T05:40:33;9.34;86.20
69589;SHT31;56792;50.644;17.984;2022-09-17T05:43:05;9.45;85.93
69589;SHT31;56792;50.644;17.984;2022-09-17T05:45:35;9.56;85.51
69589;SHT31;56792;50.644;17.984;2022-09-17T05:48:06;9.66;85.41
69589;SHT31;56792;50.644;17.984;2022-09-17T05:50:39;9.73;85.14
69589;SHT31;56792;50.644;17.984;2022-09-17T05:53:10;9.81;84.97
69589;SHT31;56792;50.644;17.984;2022-09-17T05:55:40;9.88;84.58
69589;SHT31;56792;50.644;17.984;2022-09-17T05:58:10;9.97;84.22
69589;SHT31;56792;50.644;17.984;2022-09-17T06:00:41;10.02;84.19
69589;SHT31;56792;50.644;17.984;2022-09-17T06:03:13;10.06;84.10
69589;SHT31;56792;50.644;17.984;2022-09-17T06:05:51;10.12;84.05
69589;SHT31;56792;50.644;17.984;2022-09-17T06:08:23;10.16;83.93
69589;SHT31;56792;50.644;17.984;2022-09-17T06:10:55;10.20;83.89
69589;SHT31;56792;50.644;17.984;2022-09-17T06:13:24;10.23;83.90
69589;SHT31;56792;50.644;17.984;2022-09-17T06:15:54;10.27;84.05
69589;SHT31;56792;50.644;17.984;2022-09-17T06:18:23;10.29;84.11
69589;SHT31;56792;50.644;17.984;2022-09-17T06:20:54;10.31;84.11
69589;SHT31;56792;50.644;17.984;2022-09-17T06:23:25;10.36;84.00
69589;SHT31;56792;50.644;17.984;2022-09-17T06:26:00;10.38;83.80
69589;SHT31;56792;50.644;17.984;2022-09-17T06:28:31;10.41;83.86
69589;SHT31;56792;50.644;17.984;2022-09-17T06:31:01;10.44;83.77
69589;SHT31;56792;50.644;17.984;2022-09-17T06:33:33;10.52;83.62
69589;SHT31;56792;50.644;17.984;2022-09-17T06:36:03;10.63;83.73
69589;SHT31;56792;50.644;17.984;2022-09-17T06:38:36;10.72;83.55
69589;SHT31;56792;50.644;17.984;2022-09-17T06:41:05;10.80;83.26
69589;SHT31;56792;50.644;17.984;2022-09-17T06:43:35;10.89;83.19
69589;SHT31;56792;50.644;17.984;2022-09-17T06:46:05;10.98;83.01
69589;SHT31;56792;50.644;17.984;2022-09-17T06:48:36;11.02;82.83
69589;SHT31;56792;50.644;17.984;2022-09-17T06:51:06;11.02;82.67
69589;SHT31;56792;50.644;17.984;2022-09-17T06:53:37;11.05;82.66
69589;SHT31;56792;50.644;17.984;2022-09-17T06:56:07;11.10;82.47
69589;SHT31;56792;50.644;17.984;2022-09-17T06:58:37;11.14;82.63
69589;SHT31;56792;50.644;17.984;2022-09-17T07:01:08;11.18;82.42
69589;SHT31;56792;50.644;17.984;2022-09-17T07:03:40;11.26;82.27
69589;SHT31;56792;50.644;17.984;2022-09-17T07:06:10;11.36;81.90
69589;SHT31;56792;50.644;17.984;2022-09-17T07:08:40;11.46;81.97
69589;SHT31;56792;50.644;17.984;2022-09-17T07:11:10;11.61;81.94
69589;SHT31;56792;50.644;17.984;2022-09-17T07:13:41;11.72;81.80
69589;SHT31;56792;50.644;17.984;2022-09-17T07:16:10;11.78;81.56
69589;SHT31;56792;50.644;17.984;2022-09-17T07:18:39;11.84;81.59
69589;SHT31;56792;50.644;17.984;2022-09-17T07:21:09;11.91;81.17
69589;SHT31;56792;50.644;17.984;2022-09-17T07:23:38;11.98;80.31
69589;SHT31;56792;50.644;17.984;2022-09-17T07:26:11;12.01;80.14
69589;SHT31;56792;50.644;17.984;2022-09-17T07:28:42;12.05;79.68
69589;SHT31;56792;50.644;17.984;2022-09-17T07:31:12;12.08;79.62
69589;SHT31;56792;50.644;17.984;2022-09-17T07:33:42;12.17;79.74
69589;SHT31;56792;50.644;17.984;2022-09-17T07:36:12;12.30;79.51
69589;SHT31;56792;50.644;17.984;2022-09-17T07:38:43;12.39;78.63
69589;SHT31;56792;50.644;17.984;2022-09-17T07:41:13;12.46;78.31
69589;SHT31;56792;50.644;17.984;2022-09-17T07:43:44;12.57;78.54
69589;SHT31;56792;50.644;17.984;2022-09-17T07:46:14;12.67;78.42
69589;SHT31;56792;50.644;17.984;2022-09-17T07:48:45;12.67;77.58
69589;SHT31;56792;50.644;17.984;2022-09-17T07:51:15;12.64;77.70
69589;SHT31;56792;50.644;17.984;2022-09-17T07:53:46;12.63;77.78
69589;SHT31;56792;50.644;17.984;2022-09-17T07:56:19;12.62;77.25
69589;SHT31;56792;50.644;17.984;2022-09-17T07:58:50;12.64;77.36
69589;SHT31;56792;50.644;17.984;2022-09-17T08:01:20;12.67;77.51
69589;SHT31;56792;50.644;17.984;2022-09-17T08:03:50;12.71;76.98
69589;SHT31;56792;50.644;17.984;2022-09-17T08:06:21;12.83;77.41
69589;SHT31;56792;50.644;17.984;2022-09-17T08:08:53;13.04;76.73
69589;SHT31;56792;50.644;17.984;2022-09-17T08:11:25;13.28;76.94
69589;SHT31;56792;50.644;17.984;2022-09-17T08:13:57;13.56;76.46
69589;SHT31;56792;50.644;17.984;2022-09-17T08:16:26;13.75;75.78
69589;SHT31;56792;50.644;17.984;2022-09-17T08:18:57;13.78;75.81
69589;SHT31;56792;50.644;17.984;2022-09-17T08:21:26;13.80;75.08
69589;SHT31;56792;50.644;17.984;2022-09-17T08:23:55;13.76;74.91
69589;SHT31;56792;50.644;17.984;2022-09-17T08:26:25;13.76;74.60
69589;SHT31;56792;50.644;17.984;2022-09-17T08:28:55;13.78;73.76
69589;SHT31;56792;50.644;17.984;2022-09-17T08:31:24;13.80;73.41
69589;SHT31;56792;50.644;17.984;2022-09-17T08:33:55;13.84;73.60
69589;SHT31;56792;50.644;17.984;2022-09-17T08:36:25;13.84;73.62
69589;SHT31;56792;50.644;17.984;2022-09-17T08:38:54;13.86;73.79
69589;SHT31;56792;50.644;17.984;2022-09-17T08:41:27;13.88;73.25
69589;SHT31;56792;50.644;17.984;2022-09-17T08:44:16;13.86;73.40
69589;SHT31;56792;50.644;17.984;2022-09-17T08:47:09;13.86;73.88
69589;SHT31;56792;50.644;17.984;2022-09-17T08:49:49;13.81;73.18
69589;SHT31;56792;50.644;17.984;2022-09-17T08:52:27;13.72;72.69
69589;SHT31;56792;50.644;17.984;2022-09-17T08:55:29;13.66;73.06
69589;SHT31;56792;50.644;17.984;2022-09-17T08:58:27;13.64;73.28
69589;SHT31;56792;50.644;17.984;2022-09-17T09:01:17;13.62;73.39
69589;SHT31;56792;50.644;17.984;2022-09-17T09:07:20;13.75;72.91
69589;SHT31;56792;50.644;17.984;2022-09-17T09:09:56;13.69;72.71
69589;SHT31;56792;50.644;17.984;2022-09-17T09:12:38;13.69;73.05
69589;SHT31;56792;50.644;17.984;2022-09-17T09:15:17;13.71;72.99
69589;SHT31;56792;50.644;17.984;2022-09-17T09:18:11;13.77;73.10
69589;SHT31;56792;50.644;17.984;2022-09-17T09:20:50;13.86;72.68
69589;SHT31;56792;50.644;17.984;2022-09-17T09:23:28;13.93;72.43
69589;SHT31;56792;50.644;17.984;2022-09-17T09:26:12;14.01;72.52
69589;SHT31;56792;50.644;17.984;2022-09-17T09:28:48;14.09;72.07
69589;SHT31;56792;50.644;17.984;2022-09-17T09:31:46;14.16;71.25
69589;SHT31;56792;50.644;17.984;2022-09-17T09:34:34;14.37;71.27
69589;SHT31;56792;50.644;17.984;2022-09-17T09:37:10;14.50;70.68
69589;SHT31;56792;50.644;17.984;2022-09-17T09:39:47;14.57;70.62
69589;SHT31;56792;50.644;17.984;2022-09-17T09:42:26;14.67;69.65
69589;SHT31;56792;50.644;17.984;2022-09-17T09:44:59;14.67;69.42
69589;SHT31;56792;50.644;17.984;2022-09-17T09:47:42;14.65;69.46
69589;SHT31;56792;50.644;17.984;2022-09-17T09:50:29;14.61;69.61
69589;SHT31;56792;50.644;17.984;2022-09-17T09:53:14;14.57;69.65
69589;SHT31;56792;50.644;17.984;2022-09-17T09:56:02;14.55;69.59
69589;SHT31;56792;50.644;17.984;2022-09-17T09:58:59;14.50;69.51
69589;SHT31;56792;50.644;17.984;2022-09-17T10:01:32;14.54;70.13
69589;SHT31;56792;50.644;17.984;2022-09-17T10:04:14;14.62;69.87
69589;SHT31;56792;50.644;17.984;2022-09-17T10:06:47;14.65;69.28
69589;SHT31;56792;50.644;17.984;2022-09-17T10:09:20;14.68;69.24
69589;SHT31;56792;50.644;17.984;2022-09-17T10:12:05;14.70;69.30
69589;SHT31;56792;50.644;17.984;2022-09-17T10:14:46;14.83;69.31
69589;SHT31;56792;50.644;17.984;2022-09-17T10:17:17;14.94;69.01
69589;SHT31;56792;50.644;17.984;2022-09-17T10:22:42;15.13;68.49
69589;SHT31;56792;50.644;17.984;2022-09-17T10:25:26;15.24;68.59
69589;SHT31;56792;50.644;17.984;2022-09-17T10:27:58;15.43;68.62
69589;SHT31;56792;50.644;17.984;2022-09-17T10:30:54;15.64;67.62
69589;SHT31;56792;50.644;17.984;2022-09-17T10:33:26;15.73;67.13
69589;SHT31;56792;50.644;17.984;2022-09-17T10:36:01;15.82;67.10
69589;SHT31;56792;50.644;17.984;2022-09-17T10:38:36;15.99;66.74
69589;SHT31;56792;50.644;17.984;2022-09-17T10:41:11;16.14;66.53
69589;SHT31;56792;50.644;17.984;2022-09-17T10:43:47;16.32;66.23
69589;SHT31;56792;50.644;17.984;2022-09-17T10:46:22;16.41;65.10
69589;SHT31;56792;50.644;17.984;2022-09-17T10:49:06;16.43;65.08
69589;SHT31;56792;50.644;17.984;2022-09-17T10:51:43;16.44;65.29
69589;SHT31;56792;50.644;17.984;2022-09-17T10:54:25;16.50;64.52
69589;SHT31;56792;50.644;17.984;2022-09-17T10:57:26;16.82;63.32
69589;SHT31;56792;50.644;17.984;2022-09-17T11:00:14;16.93;63.56
69589;SHT31;56792;50.644;17.984;2022-09-17T11:06:32;17.09;63.68
69589;SHT31;56792;50.644;17.984;2022-09-17T11:09:19;17.22;62.92
69589;SHT31;56792;50.644;17.984;2022-09-17T11:12:09;17.58;62.28
69589;SHT31;56792;50.644;17.984;2022-09-17T11:14:56;17.87;61.23
69589;SHT31;56792;50.644;17.984;2022-09-17T11:17:59;18.23;60.56
69589;SHT31;56792;50.644;17.984;2022-09-17T11:21:01;18.62;59.31
69589;SHT31;56792;50.644;17.984;2022-09-17T11:23:57;18.69;59.40
69589;SHT31;56792;50.644;17.984;2022-09-17T11:27:09;18.90;59.29
69589;SHT31;56792;50.644;17.984;2022-09-17T11:30:00;19.21;57.95
69589;SHT31;56792;50.644;17.984;2022-09-17T11:32:57;19.73;57.08
69589;SHT31;56792;50.644;17.984;2022-09-17T11:35:51;20.73;55.95
69589;SHT31;56792;50.644;17.984;2022-09-17T11:38:28;21.07;54.29
69589;SHT31;56792;50.644;17.984;2022-09-17T11:41:07;20.69;54.50
69589;SHT31;56792;50.644;17.984;2022-09-17T11:43:43;20.90;53.78
69589;SHT31;56792;50.644;17.984;2022-09-17T11:46:33;20.44;53.67
69589;SHT31;56792;50.644;17.984;2022-09-17T11:49:09;19.93;54.49
69589;SHT31;56792;50.644;17.984;2022-09-17T11:51:49;19.58;54.76
69589;SHT31;56792;50.644;17.984;2022-09-17T11:54:25;19.18;55.18
69589;SHT31;56792;50.644;17.984;2022-09-17T11:57:07;18.83;55.92
69589;SHT31;56792;50.644;17.984;2022-09-17T11:59:45;18.47;56.38
69589;SHT31;56792;50.644;17.984;2022-09-17T12:02:22;18.23;56.89
69589;SHT31;56792;50.644;17.984;2022-09-17T12:05:06;18.00;57.15
69589;SHT31;56792;50.644;17.984;2022-09-17T12:07:46;17.79;57.88
69589;SHT31;56792;50.644;17.984;2022-09-17T12:10:31;17.62;58.21
69589;SHT31;56792;50.644;17.984;2022-09-17T12:13:17;17.47;59.19
69589;SHT31;56792;50.644;17.984;2022-09-17T12:16:07;17.34;59.22
69589;SHT31;56792;50.644;17.984;2022-09-17T12:18:47;17.17;59.44
69589;SHT31;56792;50.644;17.984;2022-09-17T12:21:28;17.03;59.62
69589;SHT31;56792;50.644;17.984;2022-09-17T12:24:06;16.83;59.99
69589;SHT31;56792;50.644;17.984;2022-09-17T12:26:52;16.69;60.22
69589;SHT31;56792;50.644;17.984;2022-09-17T12:29:38;16.58;60.41
69589;SHT31;56792;50.644;17.984;2022-09-17T12:32:40;16.63;60.85
69589;SHT31;56792;50.644;17.984;2022-09-17T12:35:32;16.85;60.51
69589;SHT31;56792;50.644;17.984;2022-09-17T12:42:00;16.79;60.62
69589;SHT31;56792;50.644;17.984;2022-09-17T12:44:53;16.78;60.78
69589;SHT31;56792;50.644;17.984;2022-09-17T12:48:00;16.77;60.85
69589;SHT31;56792;50.644;17.984;2022-09-17T12:50:50;16.88;60.56
69589;SHT31;56792;50.644;17.984;2022-09-17T12:53:39;16.77;60.38
69589;SHT31;56792;50.644;17.984;2022-09-17T12:56:24;16.70;60.54
69589;SHT31;56792;50.644;17.984;2022-09-17T12:59:15;16.61;60.69
69589;SHT31;56792;50.644;17.984;2022-09-17T13:01:47;16.57;60.92
69589;SHT31;56792;50.644;17.984;2022-09-17T13:04:28;16.51;61.54
69589;SHT31;56792;50.644;17.984;2022-09-17T13:07:31;16.59;61.65
69589;SHT31;56792;50.644;17.984;2022-09-17T13:10:38;16.73;61.25
69589;SHT31;56792;50.644;17.984;2022-09-17T13:13:28;16.93;61.03
69589;SHT31;56792;50.644;17.984;2022-09-17T13:16:10;16.96;60.63
69589;SHT31;56792;50.644;17.984;2022-09-17T13:18:47;16.92;60.66
69589;SHT31;56792;50.644;17.984;2022-09-17T13:21:30;16.76;60.65
69589;SHT31;56792;50.644;17.984;2022-09-17T13:24:14;16.65;61.01
69589;SHT31;56792;50.644;17.984;2022-09-17T13:26:47;16.64;61.59
69589;SHT31;56792;50.644;17.984;2022-09-17T13:38:18;16.97;60.23
69589;SHT31;56792;50.644;17.984;2022-09-17T13:40:49;17.18;60.06
69589;SHT31;56792;50.644;17.984;2022-09-17T13:43:42;17.79;58.98
69589;SHT31;56792;50.644;17.984;2022-09-17T13:46:17;18.03;58.20
69589;SHT31;56792;50.644;17.984;2022-09-17T13:48:52;18.02;58.34
69589;SHT31;56792;50.644;17.984;2022-09-17T13:51:46;17.80;58.00
69589;SHT31;56792;50.644;17.984;2022-09-17T13:54:20;17.55;58.71
69589;SHT31;56792;50.644;17.984;2022-09-17T13:57:06;17.44;58.92
69589;SHT31;56792;50.644;17.984;2022-09-17T13:59:54;17.33;59.15
69589;SHT31;56792;50.644;17.984;2022-09-17T14:02:28;17.27;59.59
69589;SHT31;56792;50.644;17.984;2022-09-17T14:08:14;17.00;59.87
69589;SHT31;56792;50.644;17.984;2022-09-17T14:20:18;17.82;59.19
69589;SHT31;56792;50.644;17.984;2022-09-17T14:22:54;17.69;57.55
69589;SHT31;56792;50.644;17.984;2022-09-17T14:25:28;17.46;58.16
69589;SHT31;56792;50.644;17.984;2022-09-17T14:28:11;17.15;58.52
69589;SHT31;56792;50.644;17.984;2022-09-17T14:30:54;16.84;59.32
69589;SHT31;56792;50.644;17.984;2022-09-17T14:33:26;16.65;59.82
69589;SHT31;56792;50.644;17.984;2022-09-17T14:36:00;16.47;60.38
69589;SHT31;56792;50.644;17.984;2022-09-17T14:38:43;16.37;60.95
69589;SHT31;56792;50.644;17.984;2022-09-17T14:41:18;16.21;61.00
69589;SHT31;56792;50.644;17.984;2022-09-17T14:43:52;16.02;61.64
69589;SHT31;56792;50.644;17.984;2022-09-17T14:46:28;15.95;62.23
69589;SHT31;56792;50.644;17.984;2022-09-17T14:49:13;15.81;62.23
69589;SHT31;56792;50.644;17.984;2022-09-17T14:51:48;15.73;62.67
69589;SHT31;56792;50.644;17.984;2022-09-17T14:54:19;15.65;63.03
69589;SHT31;56792;50.644;17.984;2022-09-17T14:56:55;15.47;63.63
69589;SHT31;56792;50.644;17.984;2022-09-17T14:59:40;15.22;63.18
69589;SHT31;56792;50.644;17.984;2022-09-17T15:02:22;15.07;63.92
69589;SHT31;56792;50.644;17.984;2022-09-17T15:05:11;14.93;64.06
69589;SHT31;56792;50.644;17.984;2022-09-17T15:07:48;14.84;64.79
69589;SHT31;56792;50.644;17.984;2022-09-17T15:10:19;14.80;65.66
69589;SHT31;56792;50.644;17.984;2022-09-17T15:12:50;14.75;65.95
69589;SHT31;56792;50.644;17.984;2022-09-17T15:15:24;14.66;66.12
69589;SHT31;56792;50.644;17.984;2022-09-17T15:17:56;14.58;66.15
69589;SHT31;56792;50.644;17.984;2022-09-17T15:20:27;14.51;66.15
69589;SHT31;56792;50.644;17.984;2022-09-17T15:23:01;14.47;66.67
69589;SHT31;56792;50.644;17.984;2022-09-17T15:25:42;14.44;67.31
69589;SHT31;56792;50.644;17.984;2022-09-17T15:28:19;14.38;67.84
69589;SHT31;56792;50.644;17.984;2022-09-17T15:31:00;14.32;68.51
69589;SHT31;56792;50.644;17.984;2022-09-17T15:33:45;14.27;68.92
69589;SHT31;56792;50.644;17.984;2022-09-17T15:36:17;14.19;69.05
69589;SHT31;56792;50.644;17.984;2022-09-17T15:38:49;14.07;69.14
69589;SHT31;56792;50.644;17.984;2022-09-17T15:41:25;14.13;69.72
69589;SHT31;56792;50.644;17.984;2022-09-17T15:44:11;14.19;69.43
69589;SHT31;56792;50.644;17.984;2022-09-17T15:46:47;14.12;69.61
69589;SHT31;56792;50.644;17.984;2022-09-17T15:49:28;14.02;70.03
69589;SHT31;56792;50.644;17.984;2022-09-17T15:52:19;13.93;70.30
69589;SHT31;56792;50.644;17.984;2022-09-17T15:55:02;13.84;70.50
69589;SHT31;56792;50.644;17.984;2022-09-17T15:57:49;13.74;70.80
69589;SHT31;56792;50.644;17.984;2022-09-17T16:00:21;13.69;71.08
69589;SHT31;56792;50.644;17.984;2022-09-17T16:02:51;13.65;71.36
69589;SHT31;56792;50.644;17.984;2022-09-17T16:08:18;13.64;72.20
69589;SHT31;56792;50.644;17.984;2022-09-17T16:11:00;13.61;72.54
69589;SHT31;56792;50.644;17.984;2022-09-17T16:13:30;13.56;72.64
69589;SHT31;56792;50.644;17.984;2022-09-17T16:16:00;13.51;72.90
69589;SHT31;56792;50.644;17.984;2022-09-17T16:18:31;13.46;73.35
69589;SHT31;56792;50.644;17.984;2022-09-17T16:21:01;13.41;73.88
69589;SHT31;56792;50.644;17.984;2022-09-17T16:23:32;13.32;74.06
69589;SHT31;56792;50.644;17.984;2022-09-17T16:26:02;13.28;74.75
69589;SHT31;56792;50.644;17.984;2022-09-17T16:28:36;13.24;75.00
69589;SHT31;56792;50.644;17.984;2022-09-17T16:31:07;13.16;75.09
69589;SHT31;56792;50.644;17.984;2022-09-17T16:33:39;13.09;75.36
69589;SHT31;56792;50.644;17.984;2022-09-17T16:36:09;13.04;75.93
69589;SHT31;56792;50.644;17.984;2022-09-17T16:38:41;13.01;76.30
69589;SHT31;56792;50.644;17.984;2022-09-17T16:41:11;12.97;76.16
69589;SHT31;56792;50.644;17.984;2022-09-17T16:43:40;12.93;76.38
69589;SHT31;56792;50.644;17.984;2022-09-17T16:46:10;12.87;76.45
69589;SHT31;56792;50.644;17.984;2022-09-17T16:48:40;12.81;76.63
69589;SHT31;56792;50.644;17.984;2022-09-17T16:51:12;12.77;77.22
69589;SHT31;56792;50.644;17.984;2022-09-17T16:53:42;12.87;77.42
69589;SHT31;56792;50.644;17.984;2022-09-17T16:56:13;12.98;77.28
69589;SHT31;56792;50.644;17.984;2022-09-17T16:58:45;13.03;77.35
69589;SHT31;56792;50.644;17.984;2022-09-17T17:01:21;12.92;77.62
69589;SHT31;56792;50.644;17.984;2022-09-17T17:03:52;12.84;77.89